createdAt,value
2022-12-04T00:03:07.813Z,104660.78
2022-12-04T00:08:10.849Z,104698.38
2022-12-04T00:13:14.638Z,104653.09
2022-12-04T00:18:17.529Z,104698.81
2022-12-04T00:23:20.487Z,104674.34
2022-12-04T00:28:23.408Z,104702.97
2022-12-04T00:33:26.815Z,104682.38
2022-12-04T00:38:29.842Z,104684.84
2022-12-04T00:43:32.810Z,104695.38
2022-12-04T00:48:36.245Z,104673.34
2022-12-04T00:53:40.162Z,104663.41
2022-12-04T00:58:43.535Z,104683.94
2022-12-04T01:03:47.198Z,104695.72
2022-12-04T01:08:52.427Z,104689.78
2022-12-04T01:13:56.677Z,104688.06
2022-12-04T01:18:59.862Z,104686.19
2022-12-04T01:24:02.939Z,104697.59
2022-12-04T01:29:06.185Z,104679.53
2022-12-04T01:34:09.161Z,104691.84
2022-12-04T01:39:12.626Z,104677.59
2022-12-04T01:44:24.408Z,104661.84
2022-12-04T01:49:34.424Z,104709.84
2022-12-04T01:54:42.274Z,104694.09
2022-12-04T01:59:50.936Z,104675.28
2022-12-04T02:04:54.620Z,104718.28
2022-12-04T02:10:03.936Z,104719.22
2022-12-04T02:15:24.792Z,104717.81
2022-12-04T02:20:39.576Z,104708.22
2022-12-04T02:26:23.501Z,104724.09
2022-12-04T02:31:44.427Z,104671.56
2022-12-04T02:37:13.222Z,104730.53
2022-12-04T02:42:28.291Z,104733.66
2022-12-04T02:47:33.958Z,104726.66
2022-12-04T02:53:06.326Z,104738.09
2022-12-04T02:58:27.160Z,104730.53
2022-12-04T03:03:33.787Z,104685.50
2022-12-04T03:08:51.668Z,104700.44
2022-12-04T03:14:01.639Z,104739.25
2022-12-04T03:19:11.072Z,104731.38
2022-12-04T03:24:36.881Z,104739.72
2022-12-04T03:29:52.913Z,104701.75
2022-12-04T03:35:02.795Z,104743.09
2022-12-04T03:40:25.887Z,104706.97
2022-12-04T03:45:31.483Z,104759.22
2022-12-04T03:50:43.056Z,104743.69
2022-12-04T03:56:06.782Z,104742.63
2022-12-04T04:01:14.078Z,104768.06
2022-12-04T04:06:23.658Z,104772.88
2022-12-04T04:11:33.375Z,104767.56
2022-12-04T04:16:57.708Z,104775.75
2022-12-04T04:22:23.450Z,104778.19
2022-12-04T04:27:26.540Z,104730.31
2022-12-04T04:32:51.641Z,104785.06
2022-12-04T04:38:19.129Z,104800.31
2022-12-04T04:43:56.815Z,104793.91
2022-12-04T04:49:04.047Z,104810.72
2022-12-04T04:54:10.735Z,104815.75
2022-12-04T04:59:15.432Z,104830.38
2022-12-04T05:04:18.392Z,104814.16
2022-12-04T05:09:21.394Z,104819.97
2022-12-04T05:14:24.365Z,104819.47
2022-12-04T05:19:45.773Z,104799.72
2022-12-04T05:24:48.903Z,104817.91
2022-12-04T05:29:56.514Z,104815.41
2022-12-04T05:34:59.766Z,104836.38
2022-12-04T05:40:02.810Z,104854.94
2022-12-04T05:45:06.294Z,104814.97
2022-12-04T05:50:11.331Z,104775.47
2022-12-04T05:55:14.483Z,104852.59
2022-12-04T06:00:18.415Z,104832.06
2022-12-04T06:05:21.587Z,104816.72
2022-12-04T06:10:27.009Z,104809.59
2022-12-04T06:15:29.899Z,104855.88
2022-12-04T06:20:33.785Z,104816.00
2022-12-04T06:25:36.988Z,104809.81
2022-12-04T06:30:39.907Z,104816.84
2022-12-04T06:35:42.826Z,104827.03
2022-12-04T06:40:45.736Z,104842.25
2022-12-04T06:45:48.970Z,104851.38
2022-12-04T06:50:59.763Z,104850.78
2022-12-04T06:56:07.938Z,104851.06
2022-12-04T07:01:13.514Z,104844.19
2022-12-04T07:06:28.995Z,104815.28
2022-12-04T07:11:32.848Z,104808.47
2022-12-04T07:16:40.685Z,104812.53
2022-12-04T07:21:44.435Z,104800.34
2022-12-04T07:26:47.718Z,104803.84
2022-12-04T07:31:50.738Z,104790.41
2022-12-04T07:36:53.760Z,104805.03
2022-12-04T07:41:56.658Z,104806.06
2022-12-04T07:46:59.943Z,104805.31
2022-12-04T07:52:02.931Z,104796.47
2022-12-04T07:57:05.985Z,104758.25
2022-12-04T08:02:09.232Z,104774.34
2022-12-04T08:07:12.189Z,104765.13
2022-12-04T08:12:15.138Z,104781.72
2022-12-04T08:17:18.194Z,104742.31
2022-12-04T08:22:25.052Z,104764.31
2022-12-04T08:27:28.486Z,104765.03
2022-12-04T08:32:31.388Z,104765.78
2022-12-04T08:37:34.427Z,104742.72
2022-12-04T08:42:37.356Z,104762.25
2022-12-04T08:47:40.382Z,104747.53
2022-12-04T08:52:43.472Z,104743.38
2022-12-04T08:57:46.655Z,104734.88
2022-12-04T09:02:50.992Z,104742.94
2022-12-04T09:07:54.096Z,104731.53
2022-12-04T09:12:57.052Z,104736.38
2022-12-04T09:18:00.034Z,104728.72
2022-12-04T09:23:05.245Z,104736.47
2022-12-04T09:28:08.610Z,104709.72
2022-12-04T09:33:11.823Z,104735.13
2022-12-04T09:38:14.811Z,104707.41
2022-12-04T09:43:31.637Z,104700.41
2022-12-04T09:48:40.532Z,104709.50
2022-12-04T09:53:53.853Z,104698.91
2022-12-04T09:59:04.080Z,104696.41
2022-12-04T10:04:09.404Z,104665.13
2022-12-04T10:09:33.819Z,104698.59
2022-12-04T10:15:05.033Z,104692.13
2022-12-04T10:20:20.149Z,104698.25
2022-12-04T10:25:25.635Z,104686.63
2022-12-04T10:30:35.965Z,104679.03
2022-12-04T10:35:44.195Z,104684.34
2022-12-04T10:40:52.237Z,104675.78
2022-12-04T10:45:55.698Z,104665.94
2022-12-04T10:50:58.980Z,104670.13
2022-12-04T10:56:35.191Z,104666.94
2022-12-04T11:01:38.447Z,104676.34
2022-12-04T11:06:41.708Z,104645.06
2022-12-04T11:11:44.931Z,104654.94
2022-12-04T11:16:59.838Z,104621.81
2022-12-04T11:22:18.102Z,104647.56
2022-12-04T11:27:34.521Z,104646.00
2022-12-04T11:32:39.013Z,104648.06
2022-12-04T11:37:45.452Z,104649.44
2022-12-04T11:43:05.010Z,104649.34
2022-12-04T11:48:17.257Z,104635.34
2022-12-04T11:53:32.444Z,104662.34
2022-12-04T11:58:45.284Z,104663.06
2022-12-04T12:03:51.784Z,104633.56
2022-12-04T12:09:18.583Z,104664.66
2022-12-04T12:14:24.226Z,104663.22
2022-12-04T12:19:40.550Z,104671.03
2022-12-04T12:25:11.732Z,104669.63
2022-12-04T12:30:21.825Z,104674.91
2022-12-04T12:35:33.348Z,104677.75
2022-12-04T12:40:51.178Z,104684.25
2022-12-04T12:46:02.510Z,104684.38
2022-12-04T12:51:33.255Z,104688.75
2022-12-04T12:56:49.220Z,104677.94
2022-12-04T13:02:00.857Z,104690.16
2022-12-04T13:07:21.230Z,104700.47
2022-12-04T13:12:25.194Z,104700.00
2022-12-04T13:17:36.620Z,104663.16
2022-12-04T13:23:00.704Z,104716.53
2022-12-04T13:28:36.558Z,104712.78
2022-12-04T13:34:01.165Z,104710.91
2022-12-04T13:39:34.325Z,104706.13
2022-12-04T13:44:37.603Z,104706.13
2022-12-04T13:49:46.413Z,104704.63
2022-12-04T13:55:00.346Z,104683.09
2022-12-04T14:00:24.804Z,104682.16
2022-12-04T14:05:40.442Z,104677.84
2022-12-04T14:10:44.747Z,104666.31
2022-12-04T14:15:48.428Z,104696.84
2022-12-04T14:21:00.761Z,104687.81
2022-12-04T14:26:05.635Z,104665.88
2022-12-04T14:31:08.845Z,104687.78
2022-12-04T14:36:25.520Z,104681.09
2022-12-04T14:41:28.752Z,104679.22
2022-12-04T14:46:46.292Z,104670.22
2022-12-04T14:51:55.307Z,104682.66
2022-12-04T14:57:32.912Z,104682.03
2022-12-04T15:02:41.750Z,104692.22
2022-12-04T15:07:54.369Z,104696.28
2022-12-04T15:12:57.862Z,104680.53
2022-12-04T15:18:10.256Z,104698.78
2022-12-04T15:23:19.529Z,104697.56
2022-12-04T15:28:49.306Z,104689.25
2022-12-04T15:33:58.953Z,104695.09
2022-12-04T15:39:02.865Z,104697.38
2022-12-04T15:44:30.453Z,104702.72
2022-12-04T15:49:33.936Z,104701.59
2022-12-04T15:54:38.060Z,104682.47
2022-12-04T15:59:41.273Z,104678.75
2022-12-04T16:04:45.654Z,104684.72
2022-12-04T16:10:01.070Z,104699.25
2022-12-04T16:15:06.929Z,104708.22
2022-12-04T16:20:11.889Z,104680.09
2022-12-04T16:25:15.436Z,104697.25
2022-12-04T16:30:18.616Z,104683.00
2022-12-04T16:35:21.898Z,104660.25
2022-12-04T16:40:25.039Z,104679.19
2022-12-04T16:45:32.243Z,104691.00
2022-12-04T16:50:35.509Z,104644.56
2022-12-04T16:55:40.052Z,104714.66
2022-12-04T17:00:45.228Z,104673.06
2022-12-04T17:05:48.496Z,104672.75
2022-12-04T17:10:52.410Z,104691.53
2022-12-04T17:15:55.889Z,104702.69
2022-12-04T17:20:59.207Z,104686.91
2022-12-04T17:26:07.883Z,104690.88
2022-12-04T17:31:29.439Z,104696.22
2022-12-04T17:36:32.573Z,104690.94
2022-12-04T17:41:35.733Z,104682.66
2022-12-04T17:46:39.153Z,104700.34
2022-12-04T17:51:42.283Z,104686.47
2022-12-04T17:56:49.586Z,104694.75
2022-12-04T18:01:55.444Z,104670.44
2022-12-04T18:06:58.739Z,104683.38
2022-12-04T18:12:02.130Z,104667.94
2022-12-04T18:17:05.529Z,104686.06
2022-12-04T18:22:08.773Z,104693.16
2022-12-04T18:27:11.857Z,104674.03
2022-12-04T18:32:14.985Z,104710.03
2022-12-04T18:37:18.773Z,104662.41
2022-12-04T18:42:21.904Z,104708.66
2022-12-04T18:47:27.015Z,104694.28
2022-12-04T18:52:30.185Z,104697.72
2022-12-04T18:57:33.970Z,104687.94
2022-12-04T19:02:37.116Z,104662.94
2022-12-04T19:07:40.360Z,104654.69
2022-12-04T19:12:43.465Z,104682.06
2022-12-04T19:17:46.804Z,104685.88
2022-12-04T19:22:49.979Z,104704.31
2022-12-04T19:27:53.076Z,104662.78
2022-12-04T19:32:56.192Z,104712.81
2022-12-04T19:37:59.344Z,104674.50
2022-12-04T19:43:03.191Z,104699.72
2022-12-04T19:48:06.628Z,104668.97
2022-12-04T19:53:09.845Z,104704.22
2022-12-04T19:58:13.118Z,104692.34
2022-12-04T20:03:16.271Z,104697.16
2022-12-04T20:08:19.450Z,104679.88
2022-12-04T20:13:22.485Z,104691.63
2022-12-04T20:18:25.770Z,104694.22
2022-12-04T20:23:29.630Z,104672.88
2022-12-04T20:28:32.729Z,104678.31
2022-12-04T20:33:35.879Z,104657.75
2022-12-04T20:38:40.386Z,104661.72
2022-12-04T20:43:44.279Z,104651.13
2022-12-04T20:48:49.555Z,104664.50
2022-12-04T20:53:53.944Z,104655.63
2022-12-04T20:58:58.847Z,104654.09
2022-12-04T21:04:02.938Z,104614.63
2022-12-04T21:09:08.975Z,104647.19
2022-12-04T21:14:37.665Z,104639.69
2022-12-04T21:19:40.920Z,104637.19
2022-12-04T21:24:44.159Z,104640.38
2022-12-04T21:29:47.226Z,104651.66
2022-12-04T21:34:52.124Z,104613.38
2022-12-04T21:39:55.706Z,104595.09
2022-12-04T21:45:04.401Z,104636.03
2022-12-04T21:50:08.126Z,104603.78
2022-12-04T21:55:11.340Z,104627.31
2022-12-04T22:00:15.156Z,104628.03
2022-12-04T22:05:18.257Z,104612.94
2022-12-04T22:10:21.393Z,104608.59
2022-12-04T22:15:24.475Z,104626.19
2022-12-04T22:20:27.918Z,104601.81
2022-12-04T22:25:31.550Z,104571.31
2022-12-04T22:30:34.887Z,104610.44
2022-12-04T22:35:38.311Z,104580.97
2022-12-04T22:40:41.487Z,104609.97
2022-12-04T22:45:44.686Z,104608.13
2022-12-04T22:50:56.939Z,104589.44
2022-12-04T22:56:28.003Z,104559.41
2022-12-04T23:01:34.691Z,104572.50
2022-12-04T23:06:38.105Z,104588.38
2022-12-04T23:11:41.793Z,104597.19
2022-12-04T23:16:45.010Z,104572.88
2022-12-04T23:21:56.438Z,104591.22
2022-12-04T23:27:00.248Z,104587.25
2022-12-04T23:32:03.369Z,104587.25
2022-12-04T23:37:07.684Z,104538.38
2022-12-04T23:42:10.795Z,104567.97
2022-12-04T23:47:13.953Z,104544.53
2022-12-04T23:52:17.076Z,104556.13
2022-12-04T23:57:20.282Z,104562.50
